createdAt,value
2023-05-04T00:00:11.107Z,11.14
2023-05-04T00:01:11.120Z,11.84
2023-05-04T00:02:11.096Z,7.02
2023-05-04T00:03:11.121Z,9.12
2023-05-04T00:04:11.252Z,7.24
2023-05-04T00:05:11.071Z,9.18
2023-05-04T00:06:11.073Z,8.20
2023-05-04T00:07:11.103Z,9.10
2023-05-04T00:08:11.072Z,12.14
2023-05-04T00:09:11.078Z,15.98
2023-05-04T00:10:11.076Z,9.14
2023-05-04T00:11:11.073Z,9.90
2023-05-04T00:12:11.077Z,10.82
2023-05-04T00:13:11.263Z,12.36
2023-05-04T00:14:11.076Z,15.20
2023-05-04T00:15:11.074Z,14.26
2023-05-04T00:16:11.303Z,9.40
2023-05-04T00:17:11.078Z,6.32
2023-05-04T00:18:11.082Z,10.86
2023-05-04T00:19:11.102Z,9.80
2023-05-04T00:20:11.074Z,10.02
2023-05-04T00:21:11.081Z,10.96
2023-05-04T00:22:11.076Z,8.30
2023-05-04T00:23:11.079Z,10.16
2023-05-04T00:24:11.074Z,15.40
2023-05-04T00:25:11.082Z,7.20
2023-05-04T00:26:11.073Z,14.74
2023-05-04T00:27:11.098Z,12.02
2023-05-04T00:28:11.082Z,14.54
2023-05-04T00:29:11.084Z,9.62
2023-05-04T00:30:11.123Z,9.68
2023-05-04T00:31:11.122Z,14.18
2023-05-04T00:32:11.072Z,8.52
2023-05-04T00:33:11.140Z,16.36
2023-05-04T00:34:11.099Z,10.26
2023-05-04T00:35:11.076Z,7.56
2023-05-04T00:36:11.080Z,13.98
2023-05-04T00:37:11.095Z,7.66
2023-05-04T00:38:11.075Z,6.52
2023-05-04T00:39:11.085Z,10.96
2023-05-04T00:40:11.092Z,7.26
2023-05-04T00:41:11.078Z,9.14
2023-05-04T00:42:11.100Z,12.26
2023-05-04T00:43:11.091Z,9.68
2023-05-04T00:44:11.092Z,10.46
2023-05-04T00:45:11.080Z,9.16
2023-05-04T00:46:11.125Z,16.08
2023-05-04T00:47:11.136Z,13.72
2023-05-04T00:48:11.143Z,13.12
2023-05-04T00:49:11.091Z,14.80
2023-05-04T00:50:11.084Z,10.92
2023-05-04T00:51:11.077Z,16.60
2023-05-04T00:52:11.094Z,19.74
2023-05-04T00:53:11.086Z,10.90
2023-05-04T00:54:11.079Z,10.56
2023-05-04T00:55:11.090Z,11.98
2023-05-04T00:56:11.088Z,10.60
2023-05-04T00:57:11.078Z,9.98
2023-05-04T00:58:11.084Z,12.08
2023-05-04T00:59:11.080Z,13.08
2023-05-04T01:00:11.087Z,9.40
2023-05-04T01:01:11.140Z,15.68
2023-05-04T01:02:11.062Z,11.34
2023-05-04T01:03:11.162Z,10.18
2023-05-04T01:04:11.197Z,10.28
2023-05-04T01:05:11.077Z,15.64
2023-05-04T01:06:19.062Z,9.12
2023-05-04T01:07:19.066Z,10.90
2023-05-04T01:08:18.070Z,12.56
2023-05-04T01:09:20.063Z,10.88
2023-05-04T01:10:20.075Z,8.54
2023-05-04T01:11:17.060Z,8.00
2023-05-04T01:12:18.080Z,16.66
2023-05-04T01:13:13.223Z,12.70
2023-05-04T01:14:11.071Z,11.82
2023-05-04T01:15:13.082Z,14.94
2023-05-04T01:16:11.093Z,15.86
2023-05-04T01:17:11.264Z,10.34
2023-05-04T01:18:11.108Z,8.36
2023-05-04T01:19:11.067Z,10.72
2023-05-04T01:20:11.083Z,12.26
2023-05-04T01:21:11.066Z,13.96
2023-05-04T01:22:11.064Z,16.90
2023-05-04T01:23:11.068Z,17.30
2023-05-04T01:24:11.068Z,14.14
2023-05-04T01:25:11.065Z,14.16
2023-05-04T01:26:16.068Z,11.24
2023-05-04T01:27:18.088Z,14.16
2023-05-04T01:28:18.066Z,9.60
2023-05-04T01:29:17.076Z,21.78
2023-05-04T01:30:18.084Z,12.72
2023-05-04T01:31:13.100Z,13.76
2023-05-04T01:32:11.067Z,18.72
2023-05-04T01:33:11.168Z,16.68
2023-05-04T01:34:11.064Z,14.84
2023-05-04T01:35:11.069Z,17.82
2023-05-04T01:36:11.074Z,11.90
2023-05-04T01:37:11.072Z,19.88
2023-05-04T01:38:11.069Z,11.58
2023-05-04T01:39:11.071Z,14.34
2023-05-04T01:40:11.069Z,16.68
2023-05-04T01:41:11.064Z,19.90
2023-05-04T01:42:11.079Z,15.18
2023-05-04T01:43:11.064Z,13.52
2023-05-04T01:44:11.060Z,12.74
2023-05-04T01:45:11.072Z,14.62
2023-05-04T01:46:11.105Z,18.18
2023-05-04T01:47:11.059Z,11.48
2023-05-04T01:48:11.112Z,18.48
2023-05-04T01:49:11.079Z,19.46
2023-05-04T01:50:11.063Z,11.52
2023-05-04T01:51:11.067Z,13.08
2023-05-04T01:52:11.066Z,14.04
2023-05-04T01:53:11.059Z,18.46
2023-05-04T01:54:11.064Z,16.76
2023-05-04T01:55:11.069Z,18.84
2023-05-04T01:56:11.060Z,15.22
2023-05-04T01:57:11.071Z,14.60
2023-05-04T01:58:11.074Z,17.60
2023-05-04T01:59:11.066Z,15.86
2023-05-04T02:00:11.076Z,21.56
2023-05-04T02:01:11.090Z,15.04
2023-05-04T02:02:11.065Z,24.46
2023-05-04T02:03:11.137Z,20.80
2023-05-04T02:04:11.276Z,13.76
2023-05-04T02:05:11.070Z,15.06
2023-05-04T02:06:11.065Z,15.96
2023-05-04T02:07:11.145Z,13.70
2023-05-04T02:08:11.068Z,20.16
2023-05-04T02:09:11.064Z,18.86
2023-05-04T02:10:11.074Z,19.00
2023-05-04T02:11:11.071Z,17.04
2023-05-04T02:12:11.067Z,15.18
2023-05-04T02:13:11.127Z,16.98
2023-05-04T02:14:11.064Z,17.08
2023-05-04T02:15:11.079Z,15.90
2023-05-04T02:16:11.117Z,14.42
2023-05-04T02:17:11.065Z,19.20
2023-05-04T02:18:11.132Z,19.66
2023-05-04T02:19:11.071Z,16.80
2023-05-04T02:20:11.067Z,16.20
2023-05-04T02:21:11.067Z,20.74
2023-05-04T02:22:11.068Z,12.98
2023-05-04T02:23:11.068Z,19.76
2023-05-04T02:24:11.063Z,10.64
2023-05-04T02:25:11.071Z,19.54
2023-05-04T02:26:11.071Z,18.16
2023-05-04T02:27:11.063Z,10.40
2023-05-04T02:28:11.065Z,10.38
2023-05-04T02:29:11.072Z,18.36
2023-05-04T02:30:11.066Z,19.12
2023-05-04T02:31:11.084Z,12.52
2023-05-04T02:32:11.076Z,22.42
2023-05-04T02:33:11.065Z,19.20
2023-05-04T02:34:11.076Z,16.46
2023-05-04T02:35:11.074Z,14.18
2023-05-04T02:36:11.069Z,15.16
2023-05-04T02:37:11.062Z,18.30
2023-05-04T02:38:11.077Z,24.94
2023-05-04T02:39:11.075Z,17.12
2023-05-04T02:40:11.060Z,23.16
2023-05-04T02:41:11.074Z,18.18
2023-05-04T02:42:11.068Z,20.56
2023-05-04T02:43:11.071Z,15.72
2023-05-04T02:44:11.071Z,19.06
2023-05-04T02:45:11.074Z,19.78
2023-05-04T02:46:11.126Z,18.56
2023-05-04T02:47:11.067Z,20.26
2023-05-04T02:48:11.078Z,22.08
2023-05-04T02:49:11.068Z,17.68
2023-05-04T02:50:11.073Z,25.24
2023-05-04T02:51:11.080Z,17.74
2023-05-04T02:52:11.074Z,15.88
2023-05-04T02:53:11.092Z,19.32
2023-05-04T02:54:11.079Z,23.88
2023-05-04T02:55:11.071Z,22.20
2023-05-04T02:56:11.069Z,15.64
2023-05-04T02:57:11.089Z,20.30
2023-05-04T02:58:11.073Z,16.94
2023-05-04T02:59:11.072Z,22.10
2023-05-04T03:00:11.091Z,27.56
2023-05-04T03:01:11.095Z,13.76
2023-05-04T03:02:11.086Z,20.34
2023-05-04T03:03:11.074Z,22.22
2023-05-04T03:04:11.100Z,18.50
2023-05-04T03:05:11.074Z,18.54
2023-05-04T03:06:11.076Z,21.76
2023-05-04T03:07:11.084Z,20.26
2023-05-04T03:08:11.094Z,19.70
2023-05-04T03:09:11.109Z,17.12
2023-05-04T03:10:11.083Z,17.30
2023-05-04T03:11:11.094Z,18.32
2023-05-04T03:12:11.071Z,15.18
2023-05-04T03:13:11.105Z,20.26
2023-05-04T03:14:11.085Z,18.28
2023-05-04T03:15:11.073Z,18.08
2023-05-04T03:16:11.106Z,23.00
2023-05-04T03:17:11.075Z,23.04
2023-05-04T03:18:11.127Z,25.00
2023-05-04T03:19:11.080Z,22.12
2023-05-04T03:20:12.072Z,21.98
2023-05-04T03:21:11.082Z,20.46
2023-05-04T03:22:11.094Z,20.06
2023-05-04T03:23:11.076Z,21.40
2023-05-04T03:24:11.077Z,20.98
2023-05-04T03:25:11.077Z,26.72
2023-05-04T03:26:11.076Z,25.54
2023-05-04T03:27:11.072Z,21.90
2023-05-04T03:28:11.083Z,27.42
2023-05-04T03:29:11.078Z,20.20
2023-05-04T03:30:11.073Z,19.84
2023-05-04T03:31:11.074Z,25.58
2023-05-04T03:32:11.134Z,17.22
2023-05-04T03:33:11.093Z,35.08
2023-05-04T03:34:11.075Z,20.98
2023-05-04T03:35:11.076Z,15.92
2023-05-04T03:36:11.075Z,19.68
2023-05-04T03:37:11.078Z,18.50
2023-05-04T03:38:13.079Z,23.38
2023-05-04T03:39:11.075Z,24.96
2023-05-04T03:40:11.072Z,20.28
2023-05-04T03:41:11.088Z,22.08
2023-05-04T03:42:11.077Z,24.58
2023-05-04T03:43:11.075Z,22.64
2023-05-04T03:44:11.080Z,24.80
2023-05-04T03:45:11.078Z,26.08
2023-05-04T03:46:11.129Z,19.58
2023-05-04T03:47:11.106Z,19.18
2023-05-04T03:48:11.163Z,19.70
2023-05-04T03:49:11.076Z,25.84
2023-05-04T03:50:11.087Z,19.54
2023-05-04T03:51:11.078Z,24.72
2023-05-04T03:52:11.082Z,22.30
2023-05-04T03:53:11.086Z,21.20
2023-05-04T03:54:11.076Z,24.74
2023-05-04T03:55:11.079Z,22.02
2023-05-04T03:56:11.084Z,22.54
2023-05-04T03:57:11.086Z,21.90
2023-05-04T03:58:11.081Z,20.20
2023-05-04T03:59:11.092Z,27.76
2023-05-04T04:00:11.086Z,21.52
2023-05-04T04:01:11.067Z,37.34
2023-05-04T04:02:11.090Z,25.64
2023-05-04T04:03:11.225Z,22.46
2023-05-04T04:04:11.082Z,22.32
2023-05-04T04:05:11.070Z,24.40
2023-05-04T04:06:12.064Z,30.36
2023-05-04T04:07:11.063Z,26.48
2023-05-04T04:08:11.064Z,19.08
2023-05-04T04:09:11.061Z,20.54
2023-05-04T04:10:11.059Z,22.88
2023-05-04T04:11:11.078Z,21.70
2023-05-04T04:12:11.063Z,25.56
2023-05-04T04:13:11.132Z,26.64
2023-05-04T04:14:11.066Z,23.90
2023-05-04T04:15:11.070Z,20.36
2023-05-04T04:16:11.076Z,31.22
2023-05-04T04:17:11.064Z,27.90
2023-05-04T04:18:11.064Z,18.10
2023-05-04T04:19:11.067Z,28.24
2023-05-04T04:20:11.077Z,31.34
2023-05-04T04:21:11.065Z,23.80
2023-05-04T04:22:11.061Z,25.16
2023-05-04T04:23:11.063Z,19.48
2023-05-04T04:24:11.088Z,25.86
2023-05-04T04:25:11.065Z,27.38
2023-05-04T04:26:11.072Z,30.76
2023-05-04T04:27:11.071Z,24.88
2023-05-04T04:28:11.064Z,22.36
2023-05-04T04:29:11.068Z,28.52
2023-05-04T04:30:11.066Z,34.08
2023-05-04T04:31:11.134Z,23.60
2023-05-04T04:32:11.077Z,29.42
2023-05-04T04:33:11.089Z,19.20
2023-05-04T04:34:11.065Z,18.08
2023-05-04T04:35:11.081Z,24.66
2023-05-04T04:36:11.085Z,27.32
2023-05-04T04:37:11.064Z,23.72
2023-05-04T04:38:11.065Z,28.02
2023-05-04T04:39:11.097Z,28.14
2023-05-04T04:40:11.065Z,27.96
2023-05-04T04:41:11.065Z,30.78
2023-05-04T04:42:11.067Z,24.24
2023-05-04T04:43:11.063Z,27.34
2023-05-04T04:44:11.068Z,22.48
2023-05-04T04:45:11.071Z,29.62
2023-05-04T04:46:11.088Z,25.76
2023-05-04T04:47:11.068Z,25.74
2023-05-04T04:48:11.223Z,23.74
2023-05-04T04:49:11.070Z,30.36
2023-05-04T04:50:11.059Z,28.64
2023-05-04T04:51:13.069Z,24.68
2023-05-04T04:52:12.198Z,28.68
2023-05-04T04:53:11.082Z,30.10
2023-05-04T04:54:11.066Z,31.34
2023-05-04T04:55:11.080Z,23.32
2023-05-04T04:56:11.082Z,28.48
2023-05-04T04:57:11.069Z,25.34
2023-05-04T04:58:11.076Z,28.38
2023-05-04T04:59:11.081Z,28.80
2023-05-04T05:00:13.070Z,25.10
2023-05-04T05:01:11.140Z,27.12
2023-05-04T05:02:11.068Z,21.86
2023-05-04T05:03:11.134Z,22.04
2023-05-04T05:04:11.097Z,20.02
2023-05-04T05:05:11.136Z,27.60
2023-05-04T05:06:11.075Z,20.20
2023-05-04T05:07:12.082Z,22.46
2023-05-04T05:08:11.068Z,25.34
2023-05-04T05:09:11.066Z,19.46
2023-05-04T05:10:11.088Z,23.92
2023-05-04T05:11:11.077Z,28.18
2023-05-04T05:12:11.064Z,29.86
2023-05-04T05:13:11.127Z,32.06
2023-05-04T05:14:11.078Z,25.82
2023-05-04T05:15:11.069Z,24.98
2023-05-04T05:16:11.091Z,28.46
2023-05-04T05:17:11.072Z,25.38
2023-05-04T05:18:11.100Z,26.38
2023-05-04T05:19:11.076Z,25.14
2023-05-04T05:20:14.128Z,28.02
2023-05-04T05:21:11.066Z,28.32
2023-05-04T05:22:11.075Z,31.46
2023-05-04T05:23:11.080Z,29.42
2023-05-04T05:24:11.070Z,35.14
2023-05-04T05:25:11.094Z,31.00
2023-05-04T05:26:11.106Z,26.80
2023-05-04T05:27:11.077Z,31.14
2023-05-04T05:28:11.074Z,27.16
2023-05-04T05:29:11.078Z,29.94
2023-05-04T05:30:11.071Z,25.88
2023-05-04T05:31:11.142Z,28.38
2023-05-04T05:32:11.079Z,33.08
2023-05-04T05:33:11.138Z,28.02
2023-05-04T05:34:11.071Z,23.84
2023-05-04T05:35:11.080Z,22.92
2023-05-04T05:36:11.095Z,36.92
2023-05-04T05:37:11.077Z,33.20
2023-05-04T05:38:11.079Z,32.02
2023-05-04T05:39:11.074Z,27.28
2023-05-04T05:40:11.081Z,32.62
2023-05-04T05:41:11.077Z,20.96
2023-05-04T05:42:11.085Z,31.56
2023-05-04T05:43:11.077Z,32.38
2023-05-04T05:44:12.957Z,33.56
2023-05-04T05:45:11.074Z,27.48
2023-05-04T05:46:11.149Z,35.02
2023-05-04T05:47:11.069Z,32.38
2023-05-04T05:48:11.132Z,28.40
2023-05-04T05:49:11.073Z,34.66
2023-05-04T05:50:11.079Z,24.42
2023-05-04T05:51:11.075Z,33.04
2023-05-04T05:52:11.080Z,26.16
2023-05-04T05:53:11.077Z,25.92
2023-05-04T05:54:11.079Z,27.10
2023-05-04T05:55:11.075Z,32.06
2023-05-04T05:56:11.078Z,24.12
2023-05-04T05:57:11.080Z,23.72
2023-05-04T05:58:11.074Z,24.14
2023-05-04T05:59:11.072Z,26.90
2023-05-04T06:00:11.081Z,32.90
2023-05-04T06:01:11.069Z,28.08
2023-05-04T06:02:11.117Z,28.52
2023-05-04T06:03:11.206Z,21.18
2023-05-04T06:04:11.223Z,28.40
2023-05-04T06:05:11.097Z,25.72
2023-05-04T06:06:11.088Z,39.44
2023-05-04T06:07:11.081Z,31.48
2023-05-04T06:08:11.069Z,30.58
2023-05-04T06:09:11.089Z,29.08
2023-05-04T06:10:11.079Z,23.68
2023-05-04T06:11:11.075Z,22.88
2023-05-04T06:12:11.076Z,26.64
2023-05-04T06:13:11.156Z,23.12
2023-05-04T06:14:11.074Z,25.74
2023-05-04T06:15:11.070Z,25.30
2023-05-04T06:16:11.130Z,27.26
2023-05-04T06:17:11.079Z,27.30
2023-05-04T06:18:11.074Z,27.78
2023-05-04T06:19:11.082Z,20.22
2023-05-04T06:20:11.075Z,24.28
2023-05-04T06:21:11.074Z,23.30
2023-05-04T06:22:11.077Z,34.72
2023-05-04T06:23:11.081Z,28.36
2023-05-04T06:24:11.083Z,29.76
2023-05-04T06:25:11.082Z,33.34
2023-05-04T06:26:11.074Z,30.82
2023-05-04T06:27:11.086Z,23.72
2023-05-04T06:28:11.080Z,21.48
2023-05-04T06:29:11.079Z,26.64
2023-05-04T06:30:11.081Z,26.58
2023-05-04T06:31:11.113Z,23.92
2023-05-04T06:32:11.311Z,30.12
2023-05-04T06:33:11.145Z,28.40
2023-05-04T06:34:11.076Z,26.58
2023-05-04T06:35:11.075Z,22.62
2023-05-04T06:36:11.075Z,22.98
2023-05-04T06:37:11.958Z,27.28
2023-05-04T06:38:11.075Z,28.48
2023-05-04T06:39:11.074Z,25.36
2023-05-04T06:40:11.418Z,23.38
2023-05-04T06:41:11.072Z,28.18
2023-05-04T06:42:11.074Z,24.46
2023-05-04T06:43:11.076Z,28.96
2023-05-04T06:44:11.081Z,40.20
2023-05-04T06:45:11.078Z,32.06
2023-05-04T06:46:11.099Z,28.14
2023-05-04T06:47:11.085Z,28.42
2023-05-04T06:48:11.124Z,27.14
2023-05-04T06:49:11.084Z,26.76
2023-05-04T06:50:11.094Z,27.60
2023-05-04T06:51:11.082Z,25.14
2023-05-04T06:52:11.086Z,23.36
2023-05-04T06:53:11.076Z,22.88
2023-05-04T06:54:11.083Z,26.80
2023-05-04T06:55:11.085Z,24.86
2023-05-04T06:56:11.097Z,24.24
2023-05-04T06:57:11.117Z,29.32
2023-05-04T06:58:11.074Z,24.18
2023-05-04T06:59:11.088Z,24.32
2023-05-04T07:00:11.087Z,23.82
2023-05-04T07:01:12.118Z,28.54
2023-05-04T07:02:11.063Z,28.08
2023-05-04T07:03:11.209Z,28.72
2023-05-04T07:04:11.126Z,29.88
2023-05-04T07:05:11.063Z,28.64
2023-05-04T07:06:11.069Z,25.78
2023-05-04T07:07:11.068Z,28.18
2023-05-04T07:08:11.076Z,34.94
2023-05-04T07:09:11.074Z,24.78
2023-05-04T07:10:11.062Z,27.20
2023-05-04T07:11:11.079Z,27.96
2023-05-04T07:12:11.066Z,27.12
2023-05-04T07:13:11.195Z,30.56
2023-05-04T07:14:11.068Z,24.92
2023-05-04T07:15:11.071Z,27.92
2023-05-04T07:16:11.077Z,28.18
2023-05-04T07:17:11.057Z,25.12
2023-05-04T07:18:11.102Z,26.62
2023-05-04T07:19:11.106Z,30.26
2023-05-04T07:20:11.089Z,28.70
2023-05-04T07:22:11.065Z,26.32
2023-05-04T07:23:11.070Z,26.88
2023-05-04T07:24:11.070Z,27.04
2023-05-04T07:25:11.068Z,24.94
2023-05-04T07:26:11.060Z,20.88
2023-05-04T07:27:11.068Z,26.96
2023-05-04T07:28:11.062Z,26.82
2023-05-04T07:29:11.059Z,24.64
2023-05-04T07:30:11.061Z,26.88
2023-05-04T07:31:11.068Z,27.30
2023-05-04T07:32:11.141Z,21.30
2023-05-04T07:33:11.078Z,23.26
2023-05-04T07:34:11.087Z,20.72
2023-05-04T07:35:11.065Z,24.60
2023-05-04T07:36:11.061Z,29.86
2023-05-04T07:37:11.072Z,27.00
2023-05-04T07:38:11.062Z,26.02
2023-05-04T07:39:11.065Z,28.28
2023-05-04T07:40:11.074Z,17.94
2023-05-04T07:41:11.060Z,24.54
2023-05-04T07:42:11.069Z,28.30
2023-05-04T07:43:11.069Z,26.28
2023-05-04T07:44:12.059Z,29.30
2023-05-04T07:45:11.066Z,24.04
2023-05-04T07:46:11.097Z,24.98
2023-05-04T07:47:11.063Z,27.18
2023-05-04T07:48:11.130Z,22.48
2023-05-04T07:49:11.065Z,23.90
2023-05-04T07:50:11.064Z,30.04
2023-05-04T07:51:13.061Z,28.80
2023-05-04T07:52:11.074Z,26.96
2023-05-04T07:53:11.066Z,27.86
2023-05-04T07:54:11.063Z,26.98
2023-05-04T07:55:11.070Z,27.30
2023-05-04T07:56:11.065Z,24.16
2023-05-04T07:57:11.063Z,23.60
2023-05-04T07:58:11.064Z,31.98
2023-05-04T07:59:11.067Z,19.92
2023-05-04T08:00:11.062Z,31.82
2023-05-04T08:01:11.082Z,21.18
2023-05-04T08:02:11.094Z,22.88
2023-05-04T08:03:11.171Z,23.90
2023-05-04T08:04:11.068Z,22.96
2023-05-04T08:05:11.075Z,24.22
2023-05-04T08:06:11.067Z,22.44
2023-05-04T08:07:11.070Z,28.88
2023-05-04T08:08:11.075Z,24.42
2023-05-04T08:09:11.073Z,33.06
2023-05-04T08:10:11.068Z,24.30
2023-05-04T08:11:19.065Z,18.02
2023-05-04T08:12:13.081Z,17.96
2023-05-04T08:13:11.148Z,22.98
2023-05-04T08:14:11.070Z,24.52
2023-05-04T08:15:11.068Z,24.42
2023-05-04T08:16:11.080Z,25.94
2023-05-04T08:17:11.070Z,23.86
2023-05-04T08:18:11.069Z,24.14
2023-05-04T08:19:11.072Z,20.28
2023-05-04T08:20:11.072Z,22.72
2023-05-04T08:21:11.079Z,23.62
2023-05-04T08:22:11.064Z,17.22
2023-05-04T08:23:11.079Z,21.20
2023-05-04T08:24:11.080Z,20.66
2023-05-04T08:25:11.072Z,19.78
2023-05-04T08:26:11.070Z,23.56
2023-05-04T08:27:12.072Z,19.22
2023-05-04T08:28:11.071Z,24.44
2023-05-04T08:29:11.097Z,28.34
2023-05-04T08:30:11.070Z,18.28
2023-05-04T08:31:11.142Z,22.46
2023-05-04T08:32:11.074Z,19.74
2023-05-04T08:33:11.104Z,24.56
2023-05-04T08:34:11.073Z,34.10
2023-05-04T08:35:11.084Z,18.54
2023-05-04T08:36:11.077Z,21.58
2023-05-04T08:37:11.077Z,33.46
2023-05-04T08:38:11.076Z,28.50
2023-05-04T08:39:11.089Z,25.22
2023-05-04T08:40:11.079Z,21.02
2023-05-04T08:41:11.105Z,33.06
2023-05-04T08:42:11.086Z,23.10
2023-05-04T08:43:11.075Z,24.00
2023-05-04T08:44:11.076Z,15.34
2023-05-04T08:45:11.085Z,31.68
2023-05-04T08:46:11.097Z,19.60
2023-05-04T08:47:11.080Z,24.44
2023-05-04T08:48:11.096Z,22.58
2023-05-04T08:49:11.078Z,23.26
2023-05-04T08:50:11.084Z,17.80
2023-05-04T08:51:11.084Z,18.86
2023-05-04T08:52:11.075Z,16.42
2023-05-04T08:53:13.101Z,15.64
2023-05-04T08:54:11.128Z,22.08
2023-05-04T08:55:13.091Z,14.68
2023-05-04T08:56:12.073Z,17.48
2023-05-04T08:57:11.081Z,23.82
2023-05-04T08:58:12.091Z,12.22
2023-05-04T08:59:17.075Z,15.26
2023-05-04T09:00:11.080Z,23.82
2023-05-04T09:01:11.163Z,14.14
2023-05-04T09:02:13.155Z,23.34
2023-05-04T09:03:11.193Z,19.04
2023-05-04T09:04:11.094Z,18.80
2023-05-04T09:05:12.087Z,22.44
2023-05-04T09:06:11.092Z,22.46
2023-05-04T09:07:11.084Z,24.90
2023-05-04T09:08:11.080Z,19.60
2023-05-04T09:09:11.083Z,24.46
2023-05-04T09:10:11.085Z,23.16
2023-05-04T09:11:11.087Z,18.36
2023-05-04T09:12:11.091Z,21.60
2023-05-04T09:13:11.179Z,18.08
2023-05-04T09:14:11.081Z,22.50
2023-05-04T09:15:15.076Z,17.60
2023-05-04T09:16:12.758Z,18.24
2023-05-04T09:17:15.082Z,17.82
2023-05-04T09:18:11.088Z,20.72
2023-05-04T09:19:17.093Z,25.80
2023-05-04T09:20:11.088Z,23.06
2023-05-04T09:21:11.082Z,23.54
2023-05-04T09:22:15.074Z,19.68
2023-05-04T09:23:11.116Z,22.82
2023-05-04T09:24:11.081Z,16.18
2023-05-04T09:25:14.080Z,29.40
2023-05-04T09:26:11.080Z,26.74
2023-05-04T09:27:13.092Z,32.74
2023-05-04T09:28:11.079Z,16.76
2023-05-04T09:29:13.098Z,21.48
2023-05-04T09:30:12.083Z,24.62
2023-05-04T09:31:11.122Z,28.18
2023-05-04T09:32:13.174Z,23.82
2023-05-04T09:33:11.082Z,20.10
2023-05-04T09:34:11.102Z,18.12
2023-05-04T09:35:16.167Z,22.04
2023-05-04T09:36:21.341Z,20.94
2023-05-04T09:37:11.084Z,25.20
2023-05-04T09:38:11.077Z,19.68
2023-05-04T09:39:15.166Z,22.40
2023-05-04T09:40:11.100Z,19.00
2023-05-04T09:41:11.124Z,21.22
2023-05-04T09:42:17.082Z,26.96
2023-05-04T09:43:11.087Z,17.42
2023-05-04T09:44:19.090Z,20.36
2023-05-04T09:45:11.085Z,20.70
2023-05-04T09:46:17.114Z,20.06
2023-05-04T09:47:11.095Z,18.70
2023-05-04T09:48:19.172Z,19.44
2023-05-04T09:49:11.085Z,24.40
2023-05-04T09:50:19.066Z,20.36
2023-05-04T09:51:11.102Z,20.26
2023-05-04T09:52:11.106Z,23.48
2023-05-04T09:53:11.089Z,20.94
2023-05-04T09:54:11.090Z,22.08
2023-05-04T09:55:12.088Z,21.88
2023-05-04T09:56:17.089Z,20.82
2023-05-04T09:57:15.110Z,18.98
2023-05-04T09:58:11.086Z,24.72
2023-05-04T09:59:11.082Z,16.16
2023-05-04T10:00:13.104Z,30.10
2023-05-04T10:01:11.176Z,22.88
2023-05-04T10:02:22.131Z,20.08
2023-05-04T10:03:13.055Z,19.62
2023-05-04T10:04:11.062Z,22.16
2023-05-04T10:05:13.107Z,22.84
2023-05-04T10:06:11.068Z,19.24
2023-05-04T10:07:11.065Z,18.10
2023-05-04T10:08:11.062Z,20.74
2023-05-04T10:09:11.063Z,21.54
2023-05-04T10:10:11.081Z,21.70
2023-05-04T10:11:11.068Z,22.24
2023-05-04T10:12:11.062Z,17.32
2023-05-04T10:13:11.140Z,16.36
2023-05-04T10:14:11.062Z,35.08
2023-05-04T10:15:11.077Z,19.16
2023-05-04T10:16:21.143Z,15.86
2023-05-04T10:17:19.060Z,17.44
2023-05-04T10:18:19.069Z,20.34
2023-05-04T10:19:19.072Z,20.42
2023-05-04T10:20:19.071Z,21.80
2023-05-04T10:21:19.092Z,27.24
2023-05-04T10:22:19.061Z,14.42
2023-05-04T10:23:19.072Z,17.90
2023-05-04T10:24:19.072Z,16.76
2023-05-04T10:25:21.070Z,19.80
2023-05-04T10:26:19.065Z,20.60
2023-05-04T10:27:18.060Z,23.32
2023-05-04T10:28:21.069Z,19.66
2023-05-04T10:29:20.584Z,22.42
2023-05-04T10:30:11.066Z,28.64
2023-05-04T10:31:11.114Z,18.64
2023-05-04T10:32:17.068Z,22.98
2023-05-04T10:33:11.092Z,21.20
2023-05-04T10:34:11.066Z,28.42
2023-05-04T10:35:11.065Z,23.78
2023-05-04T10:36:11.080Z,21.38
2023-05-04T10:37:20.098Z,19.42
2023-05-04T10:38:11.067Z,15.98
2023-05-04T10:39:20.089Z,15.46
2023-05-04T10:40:11.076Z,20.86
2023-05-04T10:41:17.069Z,17.66
2023-05-04T10:42:11.068Z,14.84
2023-05-04T10:43:15.078Z,18.50
2023-05-04T10:44:11.068Z,37.28
2023-05-04T10:45:11.081Z,27.02
2023-05-04T10:46:19.082Z,19.06
2023-05-04T10:47:11.071Z,17.10
2023-05-04T10:48:11.103Z,23.18
2023-05-04T10:49:16.073Z,19.36
2023-05-04T10:50:11.076Z,19.36
2023-05-04T10:51:17.072Z,16.98
2023-05-04T10:52:14.070Z,17.72
2023-05-04T10:53:11.109Z,20.38
2023-05-04T10:54:17.083Z,21.40
2023-05-04T10:55:11.069Z,19.44
2023-05-04T10:56:15.073Z,15.28
2023-05-04T10:57:12.076Z,11.98
2023-05-04T10:58:11.068Z,14.80
2023-05-04T10:59:11.069Z,26.52
2023-05-04T11:00:11.072Z,19.12
2023-05-04T11:01:13.084Z,17.74
2023-05-04T11:02:11.079Z,13.74
2023-05-04T11:03:11.218Z,13.38
2023-05-04T11:04:19.074Z,16.66
2023-05-04T11:05:11.072Z,18.16
2023-05-04T11:06:23.161Z,15.00
2023-05-04T11:07:11.071Z,17.52
2023-05-04T11:08:15.070Z,19.70
2023-05-04T11:09:14.070Z,20.84
2023-05-04T11:10:15.132Z,18.60
2023-05-04T11:11:12.074Z,15.52
2023-05-04T11:12:11.074Z,22.70
2023-05-04T11:13:12.158Z,17.02
2023-05-04T11:14:11.082Z,21.18
2023-05-04T11:15:11.073Z,23.84
2023-05-04T11:16:11.113Z,15.42
2023-05-04T11:17:26.916Z,20.96
2023-05-04T11:18:13.188Z,29.02
2023-05-04T11:19:11.083Z,16.20
2023-05-04T11:20:11.082Z,14.10
2023-05-04T11:21:11.073Z,18.74
2023-05-04T11:22:11.072Z,13.32
2023-05-04T11:23:17.097Z,14.92
2023-05-04T11:24:11.073Z,18.82
2023-05-04T11:25:11.077Z,17.94
2023-05-04T11:26:11.081Z,15.74
2023-05-04T11:27:15.069Z,21.68
2023-05-04T11:28:11.088Z,14.82
2023-05-04T11:29:15.080Z,14.78
2023-05-04T11:30:11.111Z,14.92
2023-05-04T11:31:15.154Z,23.88
2023-05-04T11:32:11.097Z,21.42
2023-05-04T11:33:13.078Z,17.60
2023-05-04T11:34:15.074Z,17.48
2023-05-04T11:35:15.081Z,14.56
2023-05-04T11:36:11.075Z,17.54
2023-05-04T11:37:11.075Z,17.46
2023-05-04T11:38:11.078Z,16.84
2023-05-04T11:39:12.082Z,19.16
2023-05-04T11:40:15.148Z,20.84
2023-05-04T11:41:11.079Z,19.94
2023-05-04T11:42:11.092Z,17.82
2023-05-04T11:43:12.106Z,20.24
2023-05-04T11:44:11.076Z,19.78
2023-05-04T11:45:19.085Z,16.32
2023-05-04T11:46:11.119Z,13.88
2023-05-04T11:47:11.081Z,17.34
2023-05-04T11:48:11.114Z,15.80
2023-05-04T11:49:11.083Z,20.56
2023-05-04T11:50:11.090Z,16.82
2023-05-04T11:51:11.079Z,18.16
2023-05-04T11:52:11.096Z,17.92
2023-05-04T11:53:11.083Z,13.64
2023-05-04T11:54:19.077Z,20.50
2023-05-04T11:55:11.091Z,19.82
2023-05-04T11:56:11.124Z,21.44
2023-05-04T11:57:15.086Z,13.92
2023-05-04T11:58:11.087Z,16.86
2023-05-04T11:59:11.087Z,15.98
2023-05-04T12:00:11.081Z,20.56
2023-05-04T12:01:11.082Z,18.30
2023-05-04T12:02:17.103Z,22.00
2023-05-04T12:03:14.209Z,20.52
2023-05-04T12:04:11.147Z,22.48
2023-05-04T12:05:14.158Z,16.38
2023-05-04T12:06:11.112Z,16.34
2023-05-04T12:07:11.084Z,14.70
2023-05-04T12:08:11.093Z,23.98
2023-05-04T12:09:11.088Z,25.82
2023-05-04T12:10:11.077Z,20.82
2023-05-04T12:11:19.138Z,15.84
2023-05-04T12:12:11.082Z,19.10
2023-05-04T12:13:17.110Z,31.08
2023-05-04T12:14:11.084Z,20.36
2023-05-04T12:15:11.090Z,21.70
2023-05-04T12:16:13.174Z,22.26
2023-05-04T12:17:11.077Z,21.68
2023-05-04T12:18:15.094Z,18.22
2023-05-04T12:19:13.437Z,14.12
2023-05-04T12:20:11.115Z,26.42
2023-05-04T12:21:18.101Z,18.66
2023-05-04T12:22:11.090Z,20.14
2023-05-04T12:23:11.085Z,16.84
2023-05-04T12:24:11.086Z,20.22
2023-05-04T12:25:11.118Z,13.98
2023-05-04T12:26:11.097Z,16.16
2023-05-04T12:27:15.105Z,25.46
2023-05-04T12:28:11.088Z,26.28
2023-05-04T12:29:11.086Z,18.56
2023-05-04T12:30:11.178Z,14.50
2023-05-04T12:31:11.196Z,22.76
2023-05-04T12:32:11.135Z,21.46
2023-05-04T12:33:11.084Z,14.84
2023-05-04T12:34:11.084Z,17.70
2023-05-04T12:35:11.086Z,24.10
2023-05-04T12:36:11.084Z,22.56
2023-05-04T12:37:11.087Z,18.32
2023-05-04T12:38:11.088Z,13.04
2023-05-04T12:39:11.104Z,19.46
2023-05-04T12:40:20.923Z,16.36
2023-05-04T12:41:13.090Z,13.66
2023-05-04T12:42:11.085Z,15.80
2023-05-04T12:43:11.085Z,20.96
2023-05-04T12:44:12.104Z,21.52
2023-05-04T12:45:11.089Z,17.68
2023-05-04T12:46:11.145Z,19.34
2023-05-04T12:47:11.093Z,19.22
2023-05-04T12:48:11.089Z,24.30
2023-05-04T12:49:11.094Z,18.58
2023-05-04T12:50:11.130Z,26.30
2023-05-04T12:51:11.089Z,18.12
2023-05-04T12:52:11.088Z,18.12
2023-05-04T12:53:11.092Z,38.10
2023-05-04T12:54:11.092Z,20.36